Orel 5 — EMFH — position and weather

sailwx.info

Track history (hours):
 
Tides and Currents Weather Stations Pressure Air Temp Water Temp Dewpoint Dewpoint Depression Visibility Wind Speed Wind Dir Waves Ship Positions

Orel 5

Last reported at 2016-Jul-26 09:09 UTC. Time now 2016-Jul-27 03:49 UTC.
Position N 47°39' E 035°07'.

Length 108 m; draft 3.3 m.

Type: Cargo ship. MMSI: 272059000.

Date/timePositionNaut miles runAvg speedWind from/ knotsBaromVisibWave heightAir tempDewpointWater temp
2016-Jul-26 09:09N 47°39' E 035°07'4 7.6
2016-Jul-26 08:33N 47°43' E 035°09'5 5.3
2016-Jul-26 07:33N 47°49' E 035°09'4 4.1
2016-Jul-26 06:33N 47°52' E 035°06'0 0.1
2016-Jul-26 05:33N 47°52' E 035°06'7 6.6
2016-Jul-26 04:33N 47°58' E 035°07'  
2016-Jul-22 05:33N 48°00' E 035°08'6 5.8
2016-Jul-22 04:33N 47°55' E 035°07'2 2.3
2016-Jul-22 03:33N 47°52' E 035°06'0 0.0
2016-Jul-22 02:33N 47°52' E 035°06'0 0.0
2016-Jul-22 01:31N 47°52' E 035°06'0 0.0
2016-Jul-22 00:31N 47°52' E 035°06'0 0.0
2016-Jul-21 23:31N 47°52' E 035°06'0 0.0
2016-Jul-21 22:31N 47°52' E 035°06'0 0.0
2016-Jul-21 21:28N 47°52' E 035°06'0 0.0
2016-Jul-21 20:28N 47°52' E 035°06'0 0.0
2016-Jul-21 19:28N 47°52' E 035°06'0 0.0
2016-Jul-21 18:28N 47°52' E 035°06'0 0.0
2016-Jul-21 17:28N 47°52' E 035°06'0 0.0
2016-Jul-21 16:28N 47°52' E 035°06'0 0.0
2016-Jul-21 15:28N 47°52' E 035°06'0 0.0
2016-Jul-21 14:28N 47°52' E 035°06'0 0.0
2016-Jul-21 13:28N 47°52' E 035°06'0 0.0
2016-Jul-21 12:28N 47°52' E 035°06'0 0.0
2016-Jul-21 11:16N 47°52' E 035°06'0 0.0
2016-Jul-21 10:28N 47°52' E 035°06'0 0.0
2016-Jul-21 09:28N 47°52' E 035°06'0 0.0
2016-Jul-21 08:28N 47°52' E 035°06'0 0.0
2016-Jul-21 07:16N 47°52' E 035°06'0 0.0
2016-Jul-21 06:28N 47°52' E 035°06'0 0.0
2016-Jul-21 05:28N 47°52' E 035°06'0 0.0
2016-Jul-21 04:28N 47°52' E 035°06'0 0.0
2016-Jul-21 03:28N 47°52' E 035°06'0 0.0
2016-Jul-21 02:28N 47°52' E 035°06'0 0.0
2016-Jul-21 01:28N 47°52' E 035°06'0 0.0
2016-Jul-21 00:28N 47°52' E 035°06'0 0.0
2016-Jul-20 23:28N 47°52' E 035°06'0 0.0
2016-Jul-20 22:28N 47°52' E 035°06'0 0.0
2016-Jul-20 21:28N 47°52' E 035°06'0 0.0
2016-Jul-20 20:28N 47°52' E 035°06'0 0.0
2016-Jul-20 19:28N 47°52' E 035°06'0 0.0
2016-Jul-20 18:28N 47°52' E 035°06'0 0.0
2016-Jul-20 17:28N 47°52' E 035°06'0 0.0
2016-Jul-20 16:28N 47°52' E 035°06'0 0.0
2016-Jul-20 15:28N 47°52' E 035°06'0 0.0
2016-Jul-20 14:28N 47°52' E 035°06'0 0.0
2016-Jul-20 13:28N 47°52' E 035°06'0 0.0
2016-Jul-20 12:28N 47°52' E 035°06'0 0.0
2016-Jul-20 11:33N 47°52' E 035°06'1 0.8
2016-Jul-20 10:33N 47°52' E 035°05'1 0.7
2016-Jul-20 09:34N 47°51' E 035°05'7 6.5
2016-Jul-20 08:33N 47°45' E 035°10'7 7.1
2016-Jul-20 07:30N 47°38' E 035°06'164 5.8
2016-Jul-19 03:22N 46°35' E 031°24'7 8.1
2016-Jul-19 02:33N 46°35' E 031°14'8 8.1
2016-Jul-19 01:34N 46°34' E 031°03'6 6.1
2016-Jul-19 00:34N 46°30' E 030°57'6 6.4
2016-Jul-18 23:34N 46°23' E 030°57'7 6.6
2016-Jul-18 22:34N 46°16' E 030°57'5 4.8
2016-Jul-18 21:34N 46°16' E 030°50'7 6.9
2016-Jul-18 20:34N 46°19' E 030°41'1 1.0
2016-Jul-18 19:33N 46°20' E 030°40'0 0.0
2016-Jul-18 18:33N 46°20' E 030°40'0 0.0
2016-Jul-17 20:12N 46°20' E 030°40'0 0.0
2016-Jul-17 19:22N 46°20' E 030°40'0 0.0
2016-Jul-17 18:32N 46°20' E 030°40'4 3.5
2016-Jul-17 17:31N 46°20' E 030°45'8 8.5
2016-Jul-17 16:34N 46°28' E 030°49'3 2.4
2016-Jul-17 15:27N 46°29' E 030°45'0 0.0
2016-Jul-17 14:30N 46°29' E 030°45'0 0.0
2016-Jul-17 13:30N 46°29' E 030°45'0 0.0
2016-Jul-17 12:30N 46°29' E 030°45'0 0.0
2016-Jul-17 11:33N 46°29' E 030°45'0 0.0
2016-Jul-17 10:33N 46°29' E 030°45'0 0.0
2016-Jul-17 09:30N 46°29' E 030°45'0 0.0
2016-Jul-17 08:33N 46°29' E 030°45'0 0.0
2016-Jul-17 07:27N 46°29' E 030°45'0 0.0
2016-Jul-17 06:33N 46°29' E 030°45'0 0.0
2016-Jul-17 04:33N 46°29' E 030°45'0 0.0
2016-Jul-17 03:33N 46°29' E 030°45'5 5.4
2016-Jul-17 02:33N 46°31' E 030°52'7 7.0
2016-Jul-17 01:33N 46°34' E 031°02'7 6.6
2016-Jul-17 00:33N 46°35' E 031°11'7 7.0
2016-Jul-16 23:33N 46°35' E 031°22'0 0.2
2016-Jul-16 22:33N 46°35' E 031°22'0 0.0
2016-Jul-16 21:24N 46°35' E 031°22'0 0.0
2016-Jul-16 20:33N 46°35' E 031°22'0 0.0
2016-Jul-16 19:33N 46°35' E 031°22'0 0.0
2016-Jul-16 18:33N 46°35' E 031°22'0 0.0
2016-Jul-16 17:33N 46°35' E 031°22'5 5.3
2016-Jul-16 16:33N 46°36' E 031°30'7 6.6
2016-Jul-16 15:33N 46°35' E 031°39'7 7.2
2016-Jul-16 14:33N 46°35' E 031°50'8 7.6
2016-Jul-16 13:34N 46°33' E 032°00'8 7.1
2016-Jul-16 12:28N 46°33' E 032°11'  
Track history (hours):
 
Tides and Currents Weather Stations Pressure Air Temp Water Temp Dewpoint Dewpoint Depression Visibility Wind Speed Wind Dir Waves Ship Positions

Orel 5

Last reported at 2016-Jul-26 09:09 UTC. Time now 2016-Jul-27 03:49 UTC.
Position N 47°39' E 035°07'.

Length 108 m; draft 3.3 m.

Type: Cargo ship. MMSI: 272059000.

Date/timePositionNaut miles runAvg speedWind from/ knotsBaromVisibWave heightAir tempDewpointWater temp
2016-Jul-26 09:09N 47°39' E 035°07'4 7.6
2016-Jul-26 08:33N 47°43' E 035°09'5 5.3
2016-Jul-26 07:33N 47°49' E 035°09'4 4.1
2016-Jul-26 06:33N 47°52' E 035°06'0 0.1
2016-Jul-26 05:33N 47°52' E 035°06'7 6.6
2016-Jul-26 04:33N 47°58' E 035°07'  
2016-Jul-22 05:33N 48°00' E 035°08'6 5.8
2016-Jul-22 04:33N 47°55' E 035°07'2 2.3
2016-Jul-22 03:33N 47°52' E 035°06'0 0.0
2016-Jul-22 02:33N 47°52' E 035°06'0 0.0
2016-Jul-22 01:31N 47°52' E 035°06'0 0.0
2016-Jul-22 00:31N 47°52' E 035°06'0 0.0
2016-Jul-21 23:31N 47°52' E 035°06'0 0.0
2016-Jul-21 22:31N 47°52' E 035°06'0 0.0
2016-Jul-21 21:28N 47°52' E 035°06'0 0.0
2016-Jul-21 20:28N 47°52' E 035°06'0 0.0
2016-Jul-21 19:28N 47°52' E 035°06'0 0.0
2016-Jul-21 18:28N 47°52' E 035°06'0 0.0
2016-Jul-21 17:28N 47°52' E 035°06'0 0.0
2016-Jul-21 16:28N 47°52' E 035°06'0 0.0
2016-Jul-21 15:28N 47°52' E 035°06'0 0.0
2016-Jul-21 14:28N 47°52' E 035°06'0 0.0
2016-Jul-21 13:28N 47°52' E 035°06'0 0.0
2016-Jul-21 12:28N 47°52' E 035°06'0 0.0
2016-Jul-21 11:16N 47°52' E 035°06'0 0.0
2016-Jul-21 10:28N 47°52' E 035°06'0 0.0
2016-Jul-21 09:28N 47°52' E 035°06'0 0.0
2016-Jul-21 08:28N 47°52' E 035°06'0 0.0
2016-Jul-21 07:16N 47°52' E 035°06'0 0.0
2016-Jul-21 06:28N 47°52' E 035°06'0 0.0
2016-Jul-21 05:28N 47°52' E 035°06'0 0.0
2016-Jul-21 04:28N 47°52' E 035°06'0 0.0
2016-Jul-21 03:28N 47°52' E 035°06'0 0.0
2016-Jul-21 02:28N 47°52' E 035°06'0 0.0
2016-Jul-21 01:28N 47°52' E 035°06'0 0.0
2016-Jul-21 00:28N 47°52' E 035°06'0 0.0
2016-Jul-20 23:28N 47°52' E 035°06'0 0.0
2016-Jul-20 22:28N 47°52' E 035°06'0 0.0
2016-Jul-20 21:28N 47°52' E 035°06'0 0.0
2016-Jul-20 20:28N 47°52' E 035°06'0 0.0
2016-Jul-20 19:28N 47°52' E 035°06'0 0.0
2016-Jul-20 18:28N 47°52' E 035°06'0 0.0
2016-Jul-20 17:28N 47°52' E 035°06'0 0.0
2016-Jul-20 16:28N 47°52' E 035°06'0 0.0
2016-Jul-20 15:28N 47°52' E 035°06'0 0.0
2016-Jul-20 14:28N 47°52' E 035°06'0 0.0
2016-Jul-20 13:28N 47°52' E 035°06'0 0.0
2016-Jul-20 12:28N 47°52' E 035°06'0 0.0
2016-Jul-20 11:33N 47°52' E 035°06'1 0.8
2016-Jul-20 10:33N 47°52' E 035°05'1 0.7
2016-Jul-20 09:34N 47°51' E 035°05'7 6.5
2016-Jul-20 08:33N 47°45' E 035°10'7 7.1
2016-Jul-20 07:30N 47°38' E 035°06'164 5.8
2016-Jul-19 03:22N 46°35' E 031°24'7 8.1
2016-Jul-19 02:33N 46°35' E 031°14'8 8.1
2016-Jul-19 01:34N 46°34' E 031°03'6 6.1
2016-Jul-19 00:34N 46°30' E 030°57'6 6.4
2016-Jul-18 23:34N 46°23' E 030°57'7 6.6
2016-Jul-18 22:34N 46°16' E 030°57'5 4.8
2016-Jul-18 21:34N 46°16' E 030°50'7 6.9
2016-Jul-18 20:34N 46°19' E 030°41'1 1.0
2016-Jul-18 19:33N 46°20' E 030°40'0 0.0
2016-Jul-18 18:33N 46°20' E 030°40'0 0.0
2016-Jul-17 20:12N 46°20' E 030°40'0 0.0
2016-Jul-17 19:22N 46°20' E 030°40'0 0.0
2016-Jul-17 18:32N 46°20' E 030°40'4 3.5
2016-Jul-17 17:31N 46°20' E 030°45'8 8.5
2016-Jul-17 16:34N 46°28' E 030°49'3 2.4
2016-Jul-17 15:27N 46°29' E 030°45'0 0.0
2016-Jul-17 14:30N 46°29' E 030°45'0 0.0
2016-Jul-17 13:30N 46°29' E 030°45'0 0.0
2016-Jul-17 12:30N 46°29' E 030°45'0 0.0
2016-Jul-17 11:33N 46°29' E 030°45'0 0.0
2016-Jul-17 10:33N 46°29' E 030°45'0 0.0
2016-Jul-17 09:30N 46°29' E 030°45'0 0.0
2016-Jul-17 08:33N 46°29' E 030°45'0 0.0
2016-Jul-17 07:27N 46°29' E 030°45'0 0.0
2016-Jul-17 06:33N 46°29' E 030°45'0 0.0
2016-Jul-17 04:33N 46°29' E 030°45'0 0.0
2016-Jul-17 03:33N 46°29' E 030°45'5 5.4
2016-Jul-17 02:33N 46°31' E 030°52'7 7.0
2016-Jul-17 01:33N 46°34' E 031°02'7 6.6
2016-Jul-17 00:33N 46°35' E 031°11'7 7.0
2016-Jul-16 23:33N 46°35' E 031°22'0 0.2
2016-Jul-16 22:33N 46°35' E 031°22'0 0.0
2016-Jul-16 21:24N 46°35' E 031°22'0 0.0
2016-Jul-16 20:33N 46°35' E 031°22'0 0.0
2016-Jul-16 19:33N 46°35' E 031°22'0 0.0
2016-Jul-16 18:33N 46°35' E 031°22'0 0.0
2016-Jul-16 17:33N 46°35' E 031°22'5 5.3
2016-Jul-16 16:33N 46°36' E 031°30'7 6.6
2016-Jul-16 15:33N 46°35' E 031°39'7 7.2
2016-Jul-16 14:33N 46°35' E 031°50'8 7.6
2016-Jul-16 13:34N 46°33' E 032°00'8 7.1
2016-Jul-16 12:28N 46°33' E 032°11'  

Dump ship's entire track history